Sedona, AZ

2:45 PM MST on October 21, 2014 (GMT -0700)
Northview | Change Station
CLOSE
Current Station
Personal Weather Station
Location: Sedona, AZ
Elevation: 4396 ft
Nearby Weather Stations

Elev 4396 ft 34.86 °N, 111.79 °W | Updated 4 seconds ago

Clear
Clear
78.8 °F
Feels Like 78 °F
N
2.2
Wind Variable Wind from East
Gusts 9.2 mph

Today
High -- | Low -- °F
--% Chance of Precip.
Yesterday
High -- | Low -- °F
Precip. -- in
6:38 AM 5:44 PM
Waning Crescent, 4% visible
Pressure 30.01 in
Visibility 10.0 miles
Clouds Clear
Heat Index 78 °F
Dew Point 39 °F
Humidity 24%
Rainfall 0.00 in
Snow Depth Not available.
UV 4 out of 12
Pollen 4.30 out of 12
Air Quality Not available.
Flu Activity No Activity
METAR KSEZ 212135Z AUTO 21005KT 10SM CLR 25/03 A3001 RMK AO2

More Conditions Fewer Conditions

Pressure 30.01 in
Visibility 10.0 miles
Clouds Clear
Heat Index 78 °F
Dew Point 39 °F
Humidity 24%
Rainfall 0.00 in
Snow Depth Not available.
UV 4 out of 12
Pollen 4.30 out of 12
Air Quality Not available.
Flu Activity No Activity
METAR KSEZ 212135Z AUTO 21005KT 10SM CLR 25/03 A3001 RMK AO2

More Conditions Fewer Conditions

10-Day Weather Forecast

Almanac

Astronomy

Oct. 21, 2014 Rise Set
Actual Time 6:38 AM MST 5:44 PM MST
Civil Twilight 6:12 AM MST 6:10 PM MST
Nautical Twilight 5:42 AM MST 6:39 PM MST
Astronomical Twilight 5:13 AM MST 7:09 PM MST
Moon 4:30 AM MST 4:36 PM MST
Length of Visible Light 11h 58m
Length of Day
11h 06m
Tomorrow will be 2m 3s shorter.
Waning Crescent, 4% of the Moon is Illuminated
Today
Waning Crescent
Oct 23
New
Oct 30
First Quarter
Nov 6
Full
Nov 14
Last Quarter

Today's Extremes

State Highs State Lows

Community

WunderPhotos

Upload Photos

1,763,785 photos uploaded!

Nearby

Snow Depth

Station Depth Elevation
Baker Butte 0 in 7300 ft
Snowslide Canyon 0 in 9730 ft
Baldy 1 in 9125 ft
Maverick Fork 0 in 9200 ft
Hannagan Meadows 0 in 9020 ft

Earthquake Activity

City Distance Mag. Time & Date
No recent earthquake activity has been reported nearby.
Minimum magnitude displayed is 2.5.

Coastal Water Temperatures

Place Temperature
No Stations Reporting

Nearby Weather Stations